This is the latest recevied weather packets stored in our database for station/object DG8RAD-1. If no packets are shown the sender has not sent any weather packets the latest 10 day(s).
| Time | Temp. | Humidity | Pressure | Rain* | Wind** | Luminosity | Snow |
|---|---|---|---|---|---|---|---|
| 1777040105 | 29.44° C | 13% | 1020 hPa | 0 mm | - | - | - |
| 1777039205 | 27.78° C | 14% | 1020 hPa | 0 mm | - | - | - |
| 1777038305 | 27.78° C | 13% | 1020 hPa | 0 mm | - | - | - |
| 1777037405 | 27.22° C | 12% | 1020 hPa | 0 mm | - | - | - |
| 1777036505 | 27.22° C | 14% | 1020 hPa | 0 mm | - | - | - |
| 1777035605 | 26.67° C | 15% | 1020 hPa | 0 mm | - | - | - |
| 1777034705 | 26.67° C | 16% | 1021 hPa | 0 mm | - | - | - |
| 1777033805 | 26.11° C | 16% | 1021 hPa | 0 mm | - | - | - |
| 1777032905 | 25.56° C | 16% | 1021 hPa | 0 mm | - | - | - |
| 1777032005 | 25° C | 17% | 1021 hPa | 0 mm | - | - | - |
| 1777031105 | 25.56° C | 17% | 1021 hPa | 0 mm | - | - | - |
| 1777030205 | 24.44° C | 18% | 1021 hPa | 0 mm | - | - | - |
| 1777029305 | 23.89° C | 18% | 1021 hPa | 0 mm | - | - | - |
| 1777028405 | 23.89° C | 18% | 1021 hPa | 0 mm | - | - | - |
| 1777027505 | 23.89° C | 19% | 1021 hPa | 0 mm | - | - | - |
| 1777026605 | 23.33° C | 18% | 1022 hPa | 0 mm | - | - | - |
| 1777025705 | 23.33° C | 19% | 1022 hPa | 0 mm | - | - | - |
| 1777024805 | 22.78° C | 19% | 1022 hPa | 0 mm | - | - | - |
| 1777014005 | 16.67° C | 30% | 1023 hPa | 0 mm | - | - | - |
| 1777013105 | 16.11° C | 31% | 1023 hPa | 0 mm | - | - | - |
| 1777012205 | 15.56° C | 32% | 1023 hPa | 0 mm | - | - | - |
| 1777011305 | 15.56° C | 33% | 1023 hPa | 0 mm | - | - | - |
| 1777010405 | 16.67° C | 33% | 1023 hPa | 0 mm | - | - | - |
| 1777009505 | 14.44° C | 37% | 1023 hPa | 0 mm | - | - | - |
| 1777008605 | 13.89° C | 38% | 1023 hPa | 0 mm | - | - | - |
* Rain latest hour (hover to see other rain measurements)
** Current wind speed in m/s (hover to see current wind gust speed)